Terminal Aerodrome Forecast
Issued by NWS Brownsville, TX

Home | Current Version | Previous Version | Text Only | Print | Product List | Glossary On
Versions: 1 2 3 4 5 6 7 8 9 10 11 12 13 14 15 16 17 18 19
000
FTUS44 KBRO 220800 AAA
TAFBRO
TAF AMD
KBRO 220850Z 2209/2306 15006KT P6SM FEW018
     FM221000 15004KT P6SM BKN015
     FM221500 15011G17KT P6SM SCT025
     FM221800 16016G22KT P6SM FEW040
     FM230000 14010KT P6SM SKC=

USA.gov is the U.S. government's official web portal to all federal, state and local government web resources and services.